Campbell Foss — WDC7754 — position and weather

sailwx.info

Track history (hours):
 
Tides and Currents Weather Stations Pressure Air Temp Water Temp Dewpoint Dewpoint Depression Visibility Wind Speed Wind Dir Waves Ship Positions

Campbell Foss

Owner: Foss Maritime Co., Seattle, WA. More information available from US FCC via Universal Licensing System and Coast Guard Vessel Documentation Center.

Last reported at 2016-Jun-28 12:34 UTC. Time now 2016-Jun-28 13:22 UTC.
Position N 33°46' W 118°13'.

Length 23 m; draft 16 m.

Type: Tug. MMSI: 367076360.

Date/timePositionNaut miles runAvg speedWind from/ knotsBaromVisibWave heightAir tempDewpointWater temp
2016-Jun-28 12:34N 33°46' W 118°13'3 3.0
2016-Jun-28 11:34N 33°44' W 118°16'1 1.1
2016-Jun-28 10:32N 33°43' W 118°15'2 2.5
2016-Jun-28 09:34N 33°45' W 118°16'0 0.4
2016-Jun-28 08:33N 33°45' W 118°16'1 1.3
2016-Jun-28 07:34N 33°46' W 118°15'1 1.4
2016-Jun-28 06:34N 33°46' W 118°13'1 0.3
2016-Jun-28 04:34N 33°46' W 118°13'0 0.0
2016-Jun-28 03:34N 33°46' W 118°13'0 0.0
2016-Jun-28 02:34N 33°46' W 118°13'0 0.0
2016-Jun-28 01:33N 33°46' W 118°13'0 0.0
2016-Jun-28 00:34N 33°46' W 118°13'0 0.0
2016-Jun-27 23:34N 33°46' W 118°13'0 0.3
2016-Jun-27 22:34N 33°46' W 118°13'3 2.9
2016-Jun-27 21:34N 33°45' W 118°17'3 3.0
2016-Jun-27 20:33N 33°43' W 118°14'3 3.0
2016-Jun-27 19:34N 33°46' W 118°13'1 0.7
2016-Jun-27 18:34N 33°46' W 118°13'2 2.1
2016-Jun-27 17:34N 33°46' W 118°16'0 0.1
2016-Jun-27 16:34N 33°46' W 118°16'0 0.4
2016-Jun-27 15:33N 33°45' W 118°16'3 2.7
2016-Jun-27 14:33N 33°43' W 118°15'1 1.2
2016-Jun-27 13:31N 33°42' W 118°14'4 4.4
2016-Jun-27 12:34N 33°46' W 118°16'3 3.0
2016-Jun-27 11:26N 33°43' W 118°15'3 3.0
2016-Jun-27 10:33N 33°45' W 118°13'0 0.0
2016-Jun-27 09:33N 33°45' W 118°13'0 0.0
2016-Jun-27 08:33N 33°45' W 118°13'0 0.0
2016-Jun-27 07:33N 33°45' W 118°13'1 0.5
2016-Jun-27 06:33N 33°46' W 118°13'1 0.6
2016-Jun-27 05:33N 33°46' W 118°13'0 0.0
2016-Jun-27 04:33N 33°46' W 118°13'2 2.2
2016-Jun-27 03:33N 33°44' W 118°13'2 2.3
2016-Jun-27 02:33N 33°46' W 118°14'0 0.5
2016-Jun-27 01:33N 33°46' W 118°13'0 0.5
2016-Jun-27 00:33N 33°46' W 118°13'0 0.3
2016-Jun-26 23:33N 33°45' W 118°13'3 2.7
2016-Jun-26 22:32N 33°44' W 118°16'2 1.9
2016-Jun-26 21:32N 33°43' W 118°13'2 1.8
2016-Jun-26 20:33N 33°45' W 118°13'0 0.0
2016-Jun-26 19:33N 33°45' W 118°13'0 0.5
2016-Jun-26 18:33N 33°46' W 118°13'0 0.0
2016-Jun-26 17:33N 33°46' W 118°13'2 2.2
2016-Jun-26 16:34N 33°46' W 118°16'0 0.2
2016-Jun-26 15:34N 33°46' W 118°16'0 0.2
2016-Jun-26 14:33N 33°46' W 118°16'0 0.0
2016-Jun-26 13:33N 33°46' W 118°16'0 0.0
2016-Jun-26 12:34N 33°46' W 118°16'0 0.3
2016-Jun-26 11:33N 33°46' W 118°16'0 0.3
2016-Jun-26 10:33N 33°46' W 118°16'0 0.0
2016-Jun-26 09:33N 33°46' W 118°16'0 0.0
2016-Jun-26 08:33N 33°46' W 118°16'0 0.0
2016-Jun-26 07:33N 33°46' W 118°16'2 2.2
2016-Jun-26 06:33N 33°46' W 118°13'1 0.6
2016-Jun-26 05:33N 33°46' W 118°13'0 0.0
2016-Jun-26 04:33N 33°46' W 118°13'0 0.0
2016-Jun-26 03:33N 33°46' W 118°13'1 1.4
2016-Jun-26 02:33N 33°45' W 118°14'1 0.6
2016-Jun-26 01:34N 33°45' W 118°13'0 0.5
2016-Jun-26 00:33N 33°45' W 118°13'0 0.1
2016-Jun-25 23:33N 33°45' W 118°13'0 0.4
2016-Jun-25 22:33N 33°45' W 118°13'1 0.9
2016-Jun-25 21:33N 33°44' W 118°13'1 0.9
2016-Jun-25 20:33N 33°45' W 118°13'0 0.5
2016-Jun-25 19:33N 33°46' W 118°13'3 3.0
2016-Jun-25 18:26N 33°44' W 118°16'2 2.5
2016-Jun-25 17:33N 33°46' W 118°16'2 2.2
2016-Jun-25 16:33N 33°46' W 118°13'3 2.8
2016-Jun-25 15:33N 33°45' W 118°17'2 2.2
2016-Jun-25 14:33N 33°46' W 118°14'2 2.0
2016-Jun-25 13:32N 33°44' W 118°13'2 2.1
2016-Jun-25 12:33N 33°46' W 118°14'1 1.4
2016-Jun-25 11:33N 33°46' W 118°16'2 1.6
2016-Jun-25 10:33N 33°46' W 118°14'2 1.7
2016-Jun-25 09:33N 33°45' W 118°12'0 0.3
2016-Jun-25 08:33N 33°45' W 118°12'1 0.6
2016-Jun-25 07:33N 33°45' W 118°13'1 1.0
2016-Jun-25 06:33N 33°46' W 118°13'0 0.0
2016-Jun-25 05:33N 33°46' W 118°13'2 0.6
2016-Jun-25 02:33N 33°44' W 118°12'1 0.9
2016-Jun-25 01:33N 33°45' W 118°13'2 2.0
2016-Jun-25 00:20N 33°44' W 118°16'0 0.4
2016-Jun-24 23:33N 33°44' W 118°15'0 0.0
2016-Jun-24 22:33N 33°44' W 118°15'0 0.0
2016-Jun-24 21:33N 33°44' W 118°15'2 2.0
2016-Jun-24 20:33N 33°45' W 118°14'1 1.0
2016-Jun-24 19:33N 33°45' W 118°13'2 1.7
2016-Jun-24 18:33N 33°46' W 118°13'0 0.0
2016-Jun-24 17:33N 33°46' W 118°13'2 1.6
2016-Jun-24 16:33N 33°45' W 118°13'3 2.6
2016-Jun-24 15:25N 33°44' W 118°16'2 2.2
2016-Jun-24 14:33N 33°46' W 118°16'0 0.1
2016-Jun-24 13:33N 33°45' W 118°16'2 1.7
2016-Jun-24 12:33N 33°44' W 118°16'1 0.9
2016-Jun-24 11:33N 33°44' W 118°17'1 1.4
2016-Jun-24 10:33N 33°46' W 118°16'1 0.5
2016-Jun-24 09:33N 33°45' W 118°16'2 2.1
2016-Jun-24 08:33N 33°44' W 118°14'0 0.3
2016-Jun-24 07:33N 33°44' W 118°14'2 0.8
2016-Jun-24 04:33N 33°46' W 118°16'3 2.9
2016-Jun-24 03:29N 33°43' W 118°15'1 1.5
2016-Jun-24 02:32N 33°41' W 118°14'4 4.5
2016-Jun-24 01:33N 33°46' W 118°13'1 0.8
2016-Jun-24 00:34N 33°46' W 118°14'0 0.1
2016-Jun-23 23:33N 33°46' W 118°14'2 2.4
2016-Jun-23 22:33N 33°45' W 118°12'1 1.4
2016-Jun-23 21:33N 33°43' W 118°11'2 1.8
2016-Jun-23 20:33N 33°44' W 118°13'1 1.4
2016-Jun-23 19:33N 33°46' W 118°13'0 0.0
2016-Jun-23 18:32N 33°46' W 118°13'1 0.7
2016-Jun-23 17:33N 33°46' W 118°13'0 0.0
2016-Jun-23 16:33N 33°46' W 118°13'3 3.1
2016-Jun-23 15:33N 33°43' W 118°14'3 2.7
2016-Jun-23 14:33N 33°45' W 118°16'1 1.0
2016-Jun-23 13:33N 33°46' W 118°16'0 0.0
2016-Jun-23 12:33N 33°46' W 118°16'0 0.0
2016-Jun-23 11:33N 33°46' W 118°16'0 0.1
2016-Jun-23 10:33N 33°46' W 118°16'0 0.0
2016-Jun-23 09:33N 33°46' W 118°16'1 1.2
2016-Jun-23 08:33N 33°45' W 118°16'3 3.0
2016-Jun-23 07:33N 33°46' W 118°13'3 1.7
2016-Jun-23 05:33N 33°43' W 118°15'5 4.9
2016-Jun-23 04:33N 33°44' W 118°10'0 0.0
2016-Jun-23 03:34N 33°44' W 118°10'3 3.3
2016-Jun-23 02:33N 33°46' W 118°13'1 1.1
2016-Jun-23 01:33N 33°45' W 118°13'0 0.3
2016-Jun-23 00:33N 33°45' W 118°13'1 0.8
2016-Jun-22 23:33N 33°45' W 118°13'0 0.5
2016-Jun-22 22:33N 33°44' W 118°12'0 0.1
2016-Jun-22 21:33N 33°44' W 118°12'2 1.5
2016-Jun-22 20:32N 33°43' W 118°11'3 3.0
2016-Jun-22 19:34N 33°46' W 118°13'0 0.0
2016-Jun-22 18:33N 33°46' W 118°13'0 0.0
2016-Jun-22 17:33N 33°46' W 118°13'1 0.7
2016-Jun-22 16:33N 33°45' W 118°13'2 2.3
2016-Jun-22 15:33N 33°45' W 118°16'1 0.5
2016-Jun-22 14:31N 33°46' W 118°16'1 0.8
2016-Jun-22 13:33N 33°46' W 118°17'1 1.0
2016-Jun-22 12:33N 33°45' W 118°16'0 0.2
2016-Jun-22 11:33N 33°45' W 118°16'3 2.9
2016-Jun-22 10:33N 33°45' W 118°13'0 0.3
2016-Jun-22 09:33N 33°46' W 118°13'0 0.0
2016-Jun-22 08:33N 33°46' W 118°13'0 0.0
2016-Jun-22 07:34N 33°46' W 118°13'0 0.0
2016-Jun-22 06:33N 33°46' W 118°13'0 0.4
2016-Jun-22 05:33N 33°46' W 118°13'0 0.3
2016-Jun-22 04:26N 33°46' W 118°13'1 1.0
2016-Jun-22 03:33N 33°46' W 118°14'3 2.9
2016-Jun-22 02:33N 33°44' W 118°17'1 1.2
2016-Jun-22 01:32N 33°46' W 118°17'1 0.7
2016-Jun-22 00:33N 33°46' W 118°16'1 0.6
2016-Jun-21 23:23N 33°45' W 118°16'2 2.8
2016-Jun-21 22:32N 33°43' W 118°16'2 2.1
2016-Jun-21 21:33N 33°44' W 118°14'1 1.1
2016-Jun-21 20:33N 33°45' W 118°14'1 0.9
2016-Jun-21 19:33N 33°45' W 118°13'2 1.7
2016-Jun-21 18:33N 33°46' W 118°13'0 0.1
2016-Jun-21 17:33N 33°46' W 118°13'0 0.0
2016-Jun-21 16:33N 33°46' W 118°13'1 0.7
2016-Jun-21 15:33N 33°46' W 118°13'3 3.3
2016-Jun-21 14:33N 33°43' W 118°11'3 1.7
2016-Jun-21 12:33N 33°44' W 118°15'1 1.4
2016-Jun-21 11:33N 33°43' W 118°15'2 2.0
2016-Jun-21 10:33N 33°44' W 118°14'0 0.2
2016-Jun-21 09:33N 33°44' W 118°14'2 2.4
2016-Jun-21 08:33N 33°46' W 118°13'1 0.8
2016-Jun-21 07:34N 33°46' W 118°13'0 0.0
2016-Jun-21 05:33N 33°46' W 118°13'3 3.1
2016-Jun-21 04:33N 33°44' W 118°10'5 5.0
2016-Jun-21 03:33N 33°44' W 118°16'2 2.1
2016-Jun-21 02:33N 33°46' W 118°16'0 0.0
2016-Jun-21 01:33N 33°46' W 118°16'0 0.0
2016-Jun-21 00:32N 33°46' W 118°16'2 2.1
2016-Jun-20 23:33N 33°44' W 118°15'0 0.3
2016-Jun-20 22:33N 33°44' W 118°15'1 1.3
2016-Jun-20 21:33N 33°45' W 118°16'1 1.5
2016-Jun-20 20:33N 33°43' W 118°16'3 3.1
2016-Jun-20 19:34N 33°45' W 118°13'1 0.6
2016-Jun-20 18:33N 33°46' W 118°13'0 0.0
2016-Jun-20 17:33N 33°46' W 118°13'0 0.5
2016-Jun-20 16:33N 33°45' W 118°13'0 0.0
2016-Jun-20 15:33N 33°45' W 118°13'0 0.0
2016-Jun-20 14:33N 33°45' W 118°13'2 1.8
2016-Jun-20 13:31N 33°44' W 118°12'1 0.8
2016-Jun-20 12:33N 33°44' W 118°12'3 2.6
2016-Jun-20 11:33N 33°46' W 118°15'3 3.0
2016-Jun-20 10:33N 33°43' W 118°15'3 3.1
2016-Jun-20 09:33N 33°46' W 118°13'1 0.6
2016-Jun-20 08:34N 33°46' W 118°13'0 0.0
2016-Jun-20 07:33N 33°46' W 118°13'1 0.7
2016-Jun-20 06:33N 33°46' W 118°13'0 0.0
2016-Jun-20 05:33N 33°46' W 118°13'1 0.6
2016-Jun-20 04:33N 33°46' W 118°14'2 1.7
2016-Jun-20 03:33N 33°46' W 118°16'3 2.9
2016-Jun-20 02:32N 33°44' W 118°13'3 3.2
2016-Jun-20 01:33N 33°45' W 118°16'0 0.0
2016-Jun-20 00:33N 33°45' W 118°16'0 0.0
2016-Jun-19 23:33N 33°45' W 118°16'0 0.0
2016-Jun-19 22:33N 33°45' W 118°16'0 0.5
2016-Jun-19 21:33N 33°45' W 118°16'3 2.6
2016-Jun-19 20:33N 33°44' W 118°13'1 0.5
2016-Jun-19 18:33N 33°45' W 118°13'1 1.4
2016-Jun-19 17:33N 33°44' W 118°12'0 0.3
2016-Jun-19 16:27N 33°43' W 118°12'2 2.4
2016-Jun-19 15:33N 33°45' W 118°13'0 0.0
2016-Jun-19 14:33N 33°45' W 118°13'0 0.0
2016-Jun-19 13:33N 33°45' W 118°13'0 0.0
2016-Jun-19 12:33N 33°45' W 118°13'0 0.2
2016-Jun-19 11:33N 33°45' W 118°13'1 0.4
2016-Jun-19 09:08N 33°46' W 118°13'0 0.0
2016-Jun-19 07:33N 33°46' W 118°13'0 0.0
2016-Jun-19 01:19N 33°46' W 118°13'0 0.0
2016-Jun-19 00:32N 33°46' W 118°13'1 0.5
2016-Jun-18 23:33N 33°46' W 118°13'1 1.0
2016-Jun-18 22:33N 33°45' W 118°13'0 0.0
2016-Jun-18 21:33N 33°45' W 118°13'0 0.5
2016-Jun-18 20:32N 33°45' W 118°14'0 0.2
2016-Jun-18 19:33N 33°45' W 118°14'1 0.7
2016-Jun-18 18:32N 33°46' W 118°13'0 0.0
2016-Jun-18 17:32N 33°46' W 118°13'0 0.4
2016-Jun-18 16:33N 33°45' W 118°13'0 0.2
2016-Jun-18 15:31N 33°45' W 118°13'1 0.8
2016-Jun-18 14:33N 33°45' W 118°13'1 0.6
2016-Jun-18 13:33N 33°45' W 118°13'  
Track history (hours):
 
Tides and Currents Weather Stations Pressure Air Temp Water Temp Dewpoint Dewpoint Depression Visibility Wind Speed Wind Dir Waves Ship Positions

Campbell Foss

Owner: Foss Maritime Co., Seattle, WA. More information available from US FCC via Universal Licensing System and Coast Guard Vessel Documentation Center.

Last reported at 2016-Jun-28 12:34 UTC. Time now 2016-Jun-28 13:22 UTC.
Position N 33°46' W 118°13'.

Length 23 m; draft 16 m.

Type: Tug. MMSI: 367076360.

Date/timePositionNaut miles runAvg speedWind from/ knotsBaromVisibWave heightAir tempDewpointWater temp
2016-Jun-28 12:34N 33°46' W 118°13'3 3.0
2016-Jun-28 11:34N 33°44' W 118°16'1 1.1
2016-Jun-28 10:32N 33°43' W 118°15'2 2.5
2016-Jun-28 09:34N 33°45' W 118°16'0 0.4
2016-Jun-28 08:33N 33°45' W 118°16'1 1.3
2016-Jun-28 07:34N 33°46' W 118°15'1 1.4
2016-Jun-28 06:34N 33°46' W 118°13'1 0.3
2016-Jun-28 04:34N 33°46' W 118°13'0 0.0
2016-Jun-28 03:34N 33°46' W 118°13'0 0.0
2016-Jun-28 02:34N 33°46' W 118°13'0 0.0
2016-Jun-28 01:33N 33°46' W 118°13'0 0.0
2016-Jun-28 00:34N 33°46' W 118°13'0 0.0
2016-Jun-27 23:34N 33°46' W 118°13'0 0.3
2016-Jun-27 22:34N 33°46' W 118°13'3 2.9
2016-Jun-27 21:34N 33°45' W 118°17'3 3.0
2016-Jun-27 20:33N 33°43' W 118°14'3 3.0
2016-Jun-27 19:34N 33°46' W 118°13'1 0.7
2016-Jun-27 18:34N 33°46' W 118°13'2 2.1
2016-Jun-27 17:34N 33°46' W 118°16'0 0.1
2016-Jun-27 16:34N 33°46' W 118°16'0 0.4
2016-Jun-27 15:33N 33°45' W 118°16'3 2.7
2016-Jun-27 14:33N 33°43' W 118°15'1 1.2
2016-Jun-27 13:31N 33°42' W 118°14'4 4.4
2016-Jun-27 12:34N 33°46' W 118°16'3 3.0
2016-Jun-27 11:26N 33°43' W 118°15'3 3.0
2016-Jun-27 10:33N 33°45' W 118°13'0 0.0
2016-Jun-27 09:33N 33°45' W 118°13'0 0.0
2016-Jun-27 08:33N 33°45' W 118°13'0 0.0
2016-Jun-27 07:33N 33°45' W 118°13'1 0.5
2016-Jun-27 06:33N 33°46' W 118°13'1 0.6
2016-Jun-27 05:33N 33°46' W 118°13'0 0.0
2016-Jun-27 04:33N 33°46' W 118°13'2 2.2
2016-Jun-27 03:33N 33°44' W 118°13'2 2.3
2016-Jun-27 02:33N 33°46' W 118°14'0 0.5
2016-Jun-27 01:33N 33°46' W 118°13'0 0.5
2016-Jun-27 00:33N 33°46' W 118°13'0 0.3
2016-Jun-26 23:33N 33°45' W 118°13'3 2.7
2016-Jun-26 22:32N 33°44' W 118°16'2 1.9
2016-Jun-26 21:32N 33°43' W 118°13'2 1.8
2016-Jun-26 20:33N 33°45' W 118°13'0 0.0
2016-Jun-26 19:33N 33°45' W 118°13'0 0.5
2016-Jun-26 18:33N 33°46' W 118°13'0 0.0
2016-Jun-26 17:33N 33°46' W 118°13'2 2.2
2016-Jun-26 16:34N 33°46' W 118°16'0 0.2
2016-Jun-26 15:34N 33°46' W 118°16'0 0.2
2016-Jun-26 14:33N 33°46' W 118°16'0 0.0
2016-Jun-26 13:33N 33°46' W 118°16'0 0.0
2016-Jun-26 12:34N 33°46' W 118°16'0 0.3
2016-Jun-26 11:33N 33°46' W 118°16'0 0.3
2016-Jun-26 10:33N 33°46' W 118°16'0 0.0
2016-Jun-26 09:33N 33°46' W 118°16'0 0.0
2016-Jun-26 08:33N 33°46' W 118°16'0 0.0
2016-Jun-26 07:33N 33°46' W 118°16'2 2.2
2016-Jun-26 06:33N 33°46' W 118°13'1 0.6
2016-Jun-26 05:33N 33°46' W 118°13'0 0.0
2016-Jun-26 04:33N 33°46' W 118°13'0 0.0
2016-Jun-26 03:33N 33°46' W 118°13'1 1.4
2016-Jun-26 02:33N 33°45' W 118°14'1 0.6
2016-Jun-26 01:34N 33°45' W 118°13'0 0.5
2016-Jun-26 00:33N 33°45' W 118°13'0 0.1
2016-Jun-25 23:33N 33°45' W 118°13'0 0.4
2016-Jun-25 22:33N 33°45' W 118°13'1 0.9
2016-Jun-25 21:33N 33°44' W 118°13'1 0.9
2016-Jun-25 20:33N 33°45' W 118°13'0 0.5
2016-Jun-25 19:33N 33°46' W 118°13'3 3.0
2016-Jun-25 18:26N 33°44' W 118°16'2 2.5
2016-Jun-25 17:33N 33°46' W 118°16'2 2.2
2016-Jun-25 16:33N 33°46' W 118°13'3 2.8
2016-Jun-25 15:33N 33°45' W 118°17'2 2.2
2016-Jun-25 14:33N 33°46' W 118°14'2 2.0
2016-Jun-25 13:32N 33°44' W 118°13'2 2.1
2016-Jun-25 12:33N 33°46' W 118°14'1 1.4
2016-Jun-25 11:33N 33°46' W 118°16'2 1.6
2016-Jun-25 10:33N 33°46' W 118°14'2 1.7
2016-Jun-25 09:33N 33°45' W 118°12'0 0.3
2016-Jun-25 08:33N 33°45' W 118°12'1 0.6
2016-Jun-25 07:33N 33°45' W 118°13'1 1.0
2016-Jun-25 06:33N 33°46' W 118°13'0 0.0
2016-Jun-25 05:33N 33°46' W 118°13'2 0.6
2016-Jun-25 02:33N 33°44' W 118°12'1 0.9
2016-Jun-25 01:33N 33°45' W 118°13'2 2.0
2016-Jun-25 00:20N 33°44' W 118°16'0 0.4
2016-Jun-24 23:33N 33°44' W 118°15'0 0.0
2016-Jun-24 22:33N 33°44' W 118°15'0 0.0
2016-Jun-24 21:33N 33°44' W 118°15'2 2.0
2016-Jun-24 20:33N 33°45' W 118°14'1 1.0
2016-Jun-24 19:33N 33°45' W 118°13'2 1.7
2016-Jun-24 18:33N 33°46' W 118°13'0 0.0
2016-Jun-24 17:33N 33°46' W 118°13'2 1.6
2016-Jun-24 16:33N 33°45' W 118°13'3 2.6
2016-Jun-24 15:25N 33°44' W 118°16'2 2.2
2016-Jun-24 14:33N 33°46' W 118°16'0 0.1
2016-Jun-24 13:33N 33°45' W 118°16'2 1.7
2016-Jun-24 12:33N 33°44' W 118°16'1 0.9
2016-Jun-24 11:33N 33°44' W 118°17'1 1.4
2016-Jun-24 10:33N 33°46' W 118°16'1 0.5
2016-Jun-24 09:33N 33°45' W 118°16'2 2.1
2016-Jun-24 08:33N 33°44' W 118°14'0 0.3
2016-Jun-24 07:33N 33°44' W 118°14'2 0.8
2016-Jun-24 04:33N 33°46' W 118°16'3 2.9
2016-Jun-24 03:29N 33°43' W 118°15'1 1.5
2016-Jun-24 02:32N 33°41' W 118°14'4 4.5
2016-Jun-24 01:33N 33°46' W 118°13'1 0.8
2016-Jun-24 00:34N 33°46' W 118°14'0 0.1
2016-Jun-23 23:33N 33°46' W 118°14'2 2.4
2016-Jun-23 22:33N 33°45' W 118°12'1 1.4
2016-Jun-23 21:33N 33°43' W 118°11'2 1.8
2016-Jun-23 20:33N 33°44' W 118°13'1 1.4
2016-Jun-23 19:33N 33°46' W 118°13'0 0.0
2016-Jun-23 18:32N 33°46' W 118°13'1 0.7
2016-Jun-23 17:33N 33°46' W 118°13'0 0.0
2016-Jun-23 16:33N 33°46' W 118°13'3 3.1
2016-Jun-23 15:33N 33°43' W 118°14'3 2.7
2016-Jun-23 14:33N 33°45' W 118°16'1 1.0
2016-Jun-23 13:33N 33°46' W 118°16'0 0.0
2016-Jun-23 12:33N 33°46' W 118°16'0 0.0
2016-Jun-23 11:33N 33°46' W 118°16'0 0.1
2016-Jun-23 10:33N 33°46' W 118°16'0 0.0
2016-Jun-23 09:33N 33°46' W 118°16'1 1.2
2016-Jun-23 08:33N 33°45' W 118°16'3 3.0
2016-Jun-23 07:33N 33°46' W 118°13'3 1.7
2016-Jun-23 05:33N 33°43' W 118°15'5 4.9
2016-Jun-23 04:33N 33°44' W 118°10'0 0.0
2016-Jun-23 03:34N 33°44' W 118°10'3 3.3
2016-Jun-23 02:33N 33°46' W 118°13'1 1.1
2016-Jun-23 01:33N 33°45' W 118°13'0 0.3
2016-Jun-23 00:33N 33°45' W 118°13'1 0.8
2016-Jun-22 23:33N 33°45' W 118°13'0 0.5
2016-Jun-22 22:33N 33°44' W 118°12'0 0.1
2016-Jun-22 21:33N 33°44' W 118°12'2 1.5
2016-Jun-22 20:32N 33°43' W 118°11'3 3.0
2016-Jun-22 19:34N 33°46' W 118°13'0 0.0
2016-Jun-22 18:33N 33°46' W 118°13'0 0.0
2016-Jun-22 17:33N 33°46' W 118°13'1 0.7
2016-Jun-22 16:33N 33°45' W 118°13'2 2.3
2016-Jun-22 15:33N 33°45' W 118°16'1 0.5
2016-Jun-22 14:31N 33°46' W 118°16'1 0.8
2016-Jun-22 13:33N 33°46' W 118°17'1 1.0
2016-Jun-22 12:33N 33°45' W 118°16'0 0.2
2016-Jun-22 11:33N 33°45' W 118°16'3 2.9
2016-Jun-22 10:33N 33°45' W 118°13'0 0.3
2016-Jun-22 09:33N 33°46' W 118°13'0 0.0
2016-Jun-22 08:33N 33°46' W 118°13'0 0.0
2016-Jun-22 07:34N 33°46' W 118°13'0 0.0
2016-Jun-22 06:33N 33°46' W 118°13'0 0.4
2016-Jun-22 05:33N 33°46' W 118°13'0 0.3
2016-Jun-22 04:26N 33°46' W 118°13'1 1.0
2016-Jun-22 03:33N 33°46' W 118°14'3 2.9
2016-Jun-22 02:33N 33°44' W 118°17'1 1.2
2016-Jun-22 01:32N 33°46' W 118°17'1 0.7
2016-Jun-22 00:33N 33°46' W 118°16'1 0.6
2016-Jun-21 23:23N 33°45' W 118°16'2 2.8
2016-Jun-21 22:32N 33°43' W 118°16'2 2.1
2016-Jun-21 21:33N 33°44' W 118°14'1 1.1
2016-Jun-21 20:33N 33°45' W 118°14'1 0.9
2016-Jun-21 19:33N 33°45' W 118°13'2 1.7
2016-Jun-21 18:33N 33°46' W 118°13'0 0.1
2016-Jun-21 17:33N 33°46' W 118°13'0 0.0
2016-Jun-21 16:33N 33°46' W 118°13'1 0.7
2016-Jun-21 15:33N 33°46' W 118°13'3 3.3
2016-Jun-21 14:33N 33°43' W 118°11'3 1.7
2016-Jun-21 12:33N 33°44' W 118°15'1 1.4
2016-Jun-21 11:33N 33°43' W 118°15'2 2.0
2016-Jun-21 10:33N 33°44' W 118°14'0 0.2
2016-Jun-21 09:33N 33°44' W 118°14'2 2.4
2016-Jun-21 08:33N 33°46' W 118°13'1 0.8
2016-Jun-21 07:34N 33°46' W 118°13'0 0.0
2016-Jun-21 05:33N 33°46' W 118°13'3 3.1
2016-Jun-21 04:33N 33°44' W 118°10'5 5.0
2016-Jun-21 03:33N 33°44' W 118°16'2 2.1
2016-Jun-21 02:33N 33°46' W 118°16'0 0.0
2016-Jun-21 01:33N 33°46' W 118°16'0 0.0
2016-Jun-21 00:32N 33°46' W 118°16'2 2.1
2016-Jun-20 23:33N 33°44' W 118°15'0 0.3
2016-Jun-20 22:33N 33°44' W 118°15'1 1.3
2016-Jun-20 21:33N 33°45' W 118°16'1 1.5
2016-Jun-20 20:33N 33°43' W 118°16'3 3.1
2016-Jun-20 19:34N 33°45' W 118°13'1 0.6
2016-Jun-20 18:33N 33°46' W 118°13'0 0.0
2016-Jun-20 17:33N 33°46' W 118°13'0 0.5
2016-Jun-20 16:33N 33°45' W 118°13'0 0.0
2016-Jun-20 15:33N 33°45' W 118°13'0 0.0
2016-Jun-20 14:33N 33°45' W 118°13'2 1.8
2016-Jun-20 13:31N 33°44' W 118°12'1 0.8
2016-Jun-20 12:33N 33°44' W 118°12'3 2.6
2016-Jun-20 11:33N 33°46' W 118°15'3 3.0
2016-Jun-20 10:33N 33°43' W 118°15'3 3.1
2016-Jun-20 09:33N 33°46' W 118°13'1 0.6
2016-Jun-20 08:34N 33°46' W 118°13'0 0.0
2016-Jun-20 07:33N 33°46' W 118°13'1 0.7
2016-Jun-20 06:33N 33°46' W 118°13'0 0.0
2016-Jun-20 05:33N 33°46' W 118°13'1 0.6
2016-Jun-20 04:33N 33°46' W 118°14'2 1.7
2016-Jun-20 03:33N 33°46' W 118°16'3 2.9
2016-Jun-20 02:32N 33°44' W 118°13'3 3.2
2016-Jun-20 01:33N 33°45' W 118°16'0 0.0
2016-Jun-20 00:33N 33°45' W 118°16'0 0.0
2016-Jun-19 23:33N 33°45' W 118°16'0 0.0
2016-Jun-19 22:33N 33°45' W 118°16'0 0.5
2016-Jun-19 21:33N 33°45' W 118°16'3 2.6
2016-Jun-19 20:33N 33°44' W 118°13'1 0.5
2016-Jun-19 18:33N 33°45' W 118°13'1 1.4
2016-Jun-19 17:33N 33°44' W 118°12'0 0.3
2016-Jun-19 16:27N 33°43' W 118°12'2 2.4
2016-Jun-19 15:33N 33°45' W 118°13'0 0.0
2016-Jun-19 14:33N 33°45' W 118°13'0 0.0
2016-Jun-19 13:33N 33°45' W 118°13'0 0.0
2016-Jun-19 12:33N 33°45' W 118°13'0 0.2
2016-Jun-19 11:33N 33°45' W 118°13'1 0.4
2016-Jun-19 09:08N 33°46' W 118°13'0 0.0
2016-Jun-19 07:33N 33°46' W 118°13'0 0.0
2016-Jun-19 01:19N 33°46' W 118°13'0 0.0
2016-Jun-19 00:32N 33°46' W 118°13'1 0.5
2016-Jun-18 23:33N 33°46' W 118°13'1 1.0
2016-Jun-18 22:33N 33°45' W 118°13'0 0.0
2016-Jun-18 21:33N 33°45' W 118°13'0 0.5
2016-Jun-18 20:32N 33°45' W 118°14'0 0.2
2016-Jun-18 19:33N 33°45' W 118°14'1 0.7
2016-Jun-18 18:32N 33°46' W 118°13'0 0.0
2016-Jun-18 17:32N 33°46' W 118°13'0 0.4
2016-Jun-18 16:33N 33°45' W 118°13'0 0.2
2016-Jun-18 15:31N 33°45' W 118°13'1 0.8
2016-Jun-18 14:33N 33°45' W 118°13'1 0.6
2016-Jun-18 13:33N 33°45' W 118°13'  

Dump ship's entire track history